Time;durP1;ratioP1;P1;durP2;ratioP2;P2;SDS_P1;SDS_P2;PMS_P1;PMS_P2;Temp;Humidity;BMP_temperature;BMP_pressure;BME280_temperature;BME280_humidity;BME280_pressure;Samples;Min_cycle;Max_cycle;Signal;HPM_P1;HPM_P2
2021/11/20 00:01:11;;;;;;;29.73;20.33;;;9.00;99.90;;;;;;5019971;28;20255;-90
2021/11/20 00:03:39;;;;;;;29.08;18.92;;;8.90;99.90;;;;;;5020101;28;20182;-91
2021/11/20 00:06:07;;;;;;;32.55;22.70;;;8.90;99.90;;;;;;5022040;28;20175;-90
2021/11/20 00:08:33;;;;;;;39.60;30.40;;;8.80;99.90;;;;;;5032510;28;20302;-91
2021/11/20 00:11:02;;;;;;;26.20;18.77;;;8.80;99.90;;;;;;5023251;28;20217;-90
2021/11/20 00:13:28;;;;;;;25.92;17.85;;;8.70;99.90;;;;;;5041397;28;20634;-91
2021/11/20 00:15:58;;;;;;;20.42;15.90;;;8.70;99.90;;;;;;5020163;28;20217;-91
2021/11/20 00:18:25;;;;;;;24.75;16.95;;;8.60;99.90;;;;;;5019553;28;20262;-89
2021/11/20 00:20:56;;;;;;;24.35;17.40;;;8.60;99.90;;;;;;5037415;28;20316;-91
2021/11/20 00:23:46;;;;;;;26.10;17.08;;;8.50;99.90;;;;;;5019781;28;20193;-89
2021/11/20 00:26:16;;;;;;;23.50;17.88;;;8.50;99.90;;;;;;5020503;28;20194;-90
2021/11/20 00:29:05;;;;;;;30.55;19.42;;;8.50;99.90;;;;;;5046968;28;20214;-88
2021/11/20 00:31:36;;;;;;;26.58;17.67;;;8.50;99.90;;;;;;5031584;28;20224;-90
2021/11/20 00:34:02;;;;;;;30.90;20.15;;;8.50;99.90;;;;;;5040666;28;20225;-90
2021/11/20 00:36:28;;;;;;;26.38;17.25;;;8.50;99.90;;;;;;5021248;28;20269;-90
2021/11/20 00:38:54;;;;;;;25.20;18.30;;;8.40;99.90;;;;;;5028159;28;20195;-90
2021/11/20 00:41:23;;;;;;;24.73;17.50;;;8.40;99.90;;;;;;5028332;28;20427;-90
2021/11/20 00:43:50;;;;;;;26.35;17.33;;;8.40;99.90;;;;;;5026627;28;20186;-89
2021/11/20 00:46:20;;;;;;;21.77;16.50;;;8.40;99.90;;;;;;5026041;28;20205;-90
2021/11/20 00:48:47;;;;;;;24.52;16.85;;;8.30;99.90;;;;;;5037361;28;20211;-92
2021/11/20 00:51:16;;;;;;;25.85;18.92;;;8.30;99.90;;;;;;5021272;28;20281;-90
2021/11/20 00:53:44;;;;;;;21.67;16.23;;;8.30;99.90;;;;;;5019379;28;20186;-91
2021/11/20 00:56:11;;;;;;;31.77;19.67;;;8.30;99.90;;;;;;5018924;28;20183;-90
2021/11/20 00:58:37;;;;;;;33.30;21.33;;;8.30;99.90;;;;;;5018981;28;20539;-91
2021/11/20 01:01:05;;;;;;;37.27;21.30;;;8.20;99.90;;;;;;5019276;28;20241;-92
2021/11/20 01:03:30;;;;;;;28.08;17.80;;;8.20;99.90;;;;;;5019225;28;20221;-91
2021/11/20 01:05:58;;;;;;;27.43;18.53;;;8.20;99.90;;;;;;5036550;28;20171;-90
2021/11/20 01:08:26;;;;;;;25.85;17.67;;;8.20;99.90;;;;;;5036716;28;20210;-91
2021/11/20 01:10:59;;;;;;;24.02;16.98;;;8.20;99.90;;;;;;5028590;28;20175;-90
2021/11/20 01:13:25;;;;;;;21.60;16.63;;;8.10;99.90;;;;;;5036445;28;20198;-91
2021/11/20 01:15:57;;;;;;;23.92;17.67;;;8.10;99.90;;;;;;5019686;28;20178;-91
2021/11/20 01:18:25;;;;;;;29.60;18.88;;;8.10;99.90;;;;;;5019977;28;20367;-91
2021/11/20 01:20:51;;;;;;;29.58;19.02;;;8.10;99.90;;;;;;5025782;28;20205;-90
2021/11/20 01:23:20;;;;;;;30.40;19.05;;;8.10;99.90;;;;;;5024077;28;20278;-89
2021/11/20 01:25:46;;;;;;;27.23;18.23;;;8.10;99.90;;;;;;5021278;28;20202;-90
2021/11/20 01:28:12;;;;;;;26.00;15.15;;;8.10;99.90;;;;;;5018240;28;20320;-91
2021/11/20 01:30:38;;;;;;;23.13;15.25;;;8.10;99.90;;;;;;5018448;28;20175;-91
2021/11/20 01:33:04;;;;;;;19.80;15.35;;;8.20;99.90;;;;;;5018183;28;20214;-90
2021/11/20 01:35:31;;;;;;;19.13;14.25;;;8.20;99.90;;;;;;5018258;28;20225;-90
2021/11/20 01:37:57;;;;;;;22.80;15.00;;;8.20;99.90;;;;;;5018470;28;20217;-91
2021/11/20 01:40:27;;;;;;;23.97;15.40;;;8.20;99.90;;;;;;5018489;28;20609;-91
2021/11/20 01:42:53;;;;;;;19.42;14.60;;;8.30;99.90;;;;;;5026810;28;20444;-90
2021/11/20 01:45:32;;;;;;;20.48;14.40;;;8.30;99.90;;;;;;5026433;28;20171;-91
2021/11/20 01:48:21;;;;;;;17.83;13.45;;;8.30;99.90;;;;;;5035727;28;20221;-89
2021/11/20 01:50:53;;;;;;;15.15;12.52;;;8.40;99.90;;;;;;5018014;28;20174;-91
2021/11/20 01:53:30;;;;;;;18.98;13.35;;;8.40;99.90;;;;;;5018218;28;20191;-90
2021/11/20 01:56:08;;;;;;;22.80;13.63;;;8.40;99.90;;;;;;5017924;28;20185;-90
2021/11/20 01:58:35;;;;;;;23.17;13.63;;;8.50;99.90;;;;;;5035880;28;20655;-91
2021/11/20 02:01:00;;;;;;;15.60;12.05;;;8.50;99.90;;;;;;5017510;28;20202;-91
2021/11/20 02:03:46;;;;;;;18.70;13.93;;;8.50;99.90;;;;;;5018058;28;20211;-90
2021/11/20 02:06:19;;;;;;;18.38;13.13;;;8.50;99.90;;;;;;5017983;28;20202;-89
2021/11/20 02:08:48;;;;;;;20.77;13.52;;;8.50;99.90;;;;;;5017870;28;20228;-91
2021/11/20 02:11:30;;;;;;;18.40;13.18;;;8.50;99.90;;;;;;5017700;28;20281;-90
2021/11/20 02:13:56;;;;;;;16.55;12.95;;;8.60;99.90;;;;;;5018328;28;20186;-91
2021/11/20 02:16:36;;;;;;;21.75;14.35;;;8.60;99.90;;;;;;5018080;28;20198;-90
2021/11/20 02:19:05;;;;;;;27.85;17.25;;;8.60;99.90;;;;;;5039848;28;20662;-92
2021/11/20 02:21:54;;;;;;;26.73;18.08;;;8.60;99.90;;;;;;5038227;28;20293;-90
2021/11/20 02:24:19;;;;;;;29.65;19.40;;;8.60;99.90;;;;;;5043932;28;20216;-91
2021/11/20 02:26:45;;;;;;;27.10;17.10;;;8.60;99.90;;;;;;5040576;28;20528;-90
2021/11/20 02:29:13;;;;;;;25.42;15.82;;;8.60;99.90;;;;;;5037165;28;20713;-90
2021/11/20 02:31:46;;;;;;;24.17;16.80;;;8.60;99.90;;;;;;5037073;28;20193;-92
2021/11/20 02:34:13;;;;;;;31.80;20.13;;;8.60;99.90;;;;;;5037470;28;20547;-92
2021/11/20 02:36:39;;;;;;;30.38;19.95;;;8.60;99.90;;;;;;5037031;28;20201;-91
2021/11/20 02:39:13;;;;;;;31.00;17.20;;;8.60;99.90;;;;;;5055287;28;20178;-91
2021/11/20 02:41:39;;;;;;;29.08;17.65;;;8.50;99.90;;;;;;5037216;28;20263;-92
2021/11/20 02:44:06;;;;;;;25.08;16.92;;;8.50;99.90;;;;;;5054767;28;20201;-91
2021/11/20 02:46:38;;;;;;;20.70;16.88;;;8.40;99.90;;;;;;5036914;28;20201;-90
2021/11/20 02:49:06;;;;;;;22.02;16.60;;;8.40;99.90;;;;;;5037782;28;20635;-91
2021/11/20 02:51:35;;;;;;;18.48;14.05;;;8.40;99.90;;;;;;5071383;28;20197;-91
2021/11/20 02:54:02;;;;;;;20.98;14.82;;;8.30;99.90;;;;;;5048389;28;20177;-90
2021/11/20 02:56:33;;;;;;;23.98;17.38;;;8.30;99.90;;;;;;5057787;28;20225;-90
2021/11/20 02:58:59;;;;;;;22.73;17.27;;;8.20;99.90;;;;;;5050621;28;20178;-91
2021/11/20 03:01:29;;;;;;;23.63;17.00;;;8.20;99.90;;;;;;5059927;28;20256;-90
2021/11/20 03:03:56;;;;;;;37.78;23.65;;;8.10;99.90;;;;;;5041108;28;20643;-89
2021/11/20 03:06:22;;;;;;;33.60;22.48;;;8.10;99.90;;;;;;5042312;28;20232;-90
2021/11/20 03:08:48;;;;;;;23.30;16.75;;;8.10;99.90;;;;;;5043354;28;20209;-90
2021/11/20 03:11:15;;;;;;;22.80;16.00;;;8.10;99.90;;;;;;5044589;28;20708;-88
2021/11/20 03:13:44;;;;;;;24.48;15.00;;;8.10;99.90;;;;;;5058909;28;20417;-90
2021/11/20 03:16:10;;;;;;;16.30;13.00;;;8.10;99.90;;;;;;5058163;28;20181;-91
2021/11/20 03:18:35;;;;;;;18.92;13.05;;;8.20;99.90;;;;;;5023687;28;20267;-90
2021/11/20 03:21:02;;;;;;;15.97;11.43;;;8.20;99.90;;;;;;5038126;28;20179;-92
2021/11/20 03:23:34;;;;;;;16.80;12.27;;;8.20;99.90;;;;;;5038590;28;20655;-91
2021/11/20 03:26:00;;;;;;;18.10;12.75;;;8.30;99.90;;;;;;5028541;28;20557;-92
2021/11/20 03:28:26;;;;;;;15.63;12.23;;;8.30;99.90;;;;;;5023774;28;20221;-93
2021/11/20 03:30:52;;;;;;;17.90;12.67;;;8.30;99.90;;;;;;5038016;28;20639;-92
2021/11/20 03:33:18;;;;;;;15.75;11.75;;;8.40;99.90;;;;;;5038434;28;20209;-93
2021/11/20 03:35:45;;;;;;;17.58;12.95;;;8.40;99.90;;;;;;5021906;28;20171;-91
2021/11/20 03:38:12;;;;;;;18.05;13.25;;;8.40;99.90;;;;;;5038593;28;20358;-92
2021/11/20 03:44:00;;;;;;;16.67;12.75;;;8.50;99.90;;;;;;5043584;28;20764;-92
2021/11/20 03:46:26;;;;;;;15.67;11.63;;;8.60;99.90;;;;;;5022800;28;20229;-94
2021/11/20 03:48:52;;;;;;;15.60;11.80;;;8.70;99.90;;;;;;5020581;28;20508;-93
2021/11/20 03:51:17;;;;;;;17.70;12.37;;;8.70;99.90;;;;;;5020177;28;20281;-91
2021/11/20 03:53:43;;;;;;;15.00;11.70;;;8.70;99.90;;;;;;5020416;28;20179;-91
2021/11/20 03:56:09;;;;;;;18.63;12.27;;;8.80;99.90;;;;;;5040549;28;20275;-94
2021/11/20 03:58:35;;;;;;;23.83;13.32;;;8.80;99.90;;;;;;5028302;28;20193;-93
2021/11/20 04:01:06;;;;;;;18.50;13.00;;;8.80;99.90;;;;;;5049584;28;20171;-93
2021/11/20 04:03:33;;;;;;;20.83;13.48;;;8.80;99.90;;;;;;5022791;28;20190;-93
2021/11/20 04:05:59;;;;;;;19.05;12.43;;;8.90;99.90;;;;;;5022230;28;20242;-94
2021/11/20 04:08:26;;;;;;;18.17;13.07;;;8.90;99.90;;;;;;5023091;28;20238;-94
2021/11/20 04:10:55;;;;;;;17.65;12.68;;;8.90;99.90;;;;;;5020066;28;20181;-93
2021/11/20 04:13:22;;;;;;;19.58;12.55;;;9.00;99.90;;;;;;5037115;28;20210;-93
2021/11/20 04:15:50;;;;;;;15.55;12.60;;;9.00;99.90;;;;;;5034696;28;20174;-92
2021/11/20 04:18:16;;;;;;;17.80;12.85;;;9.00;99.90;;;;;;5021514;28;20238;-92
2021/11/20 04:20:42;;;;;;;17.63;12.63;;;9.00;99.90;;;;;;5037181;28;20194;-92
2021/11/20 04:23:09;;;;;;;16.48;12.38;;;9.10;99.90;;;;;;5019468;28;20414;-94
2021/11/20 04:25:35;;;;;;;16.60;13.05;;;9.10;99.90;;;;;;5037150;28;20178;-93
2021/11/20 04:28:01;;;;;;;16.60;11.37;;;9.10;99.90;;;;;;5021536;28;20239;-93
2021/11/20 04:30:27;;;;;;;16.70;13.00;;;9.10;99.90;;;;;;5019960;28;20390;-92
2021/11/20 04:32:54;;;;;;;16.05;12.00;;;9.20;99.90;;;;;;5019487;28;20206;-93
2021/11/20 04:35:23;;;;;;;17.10;12.30;;;9.20;99.90;;;;;;5019447;28;20183;-92
2021/11/20 04:37:50;;;;;;;19.10;14.23;;;9.20;99.90;;;;;;5019347;28;20694;-93
2021/11/20 04:40:18;;;;;;;21.42;13.07;;;9.30;99.90;;;;;;5019342;28;20183;-93
2021/11/20 04:42:45;;;;;;;19.65;13.70;;;9.30;99.90;;;;;;5025991;28;20276;-93
2021/11/20 04:45:14;;;;;;;20.55;13.63;;;9.30;99.90;;;;;;5022483;28;20182;-92
2021/11/20 04:47:40;;;;;;;18.23;14.65;;;9.30;99.90;;;;;;5023638;28;20588;-92
2021/11/20 04:50:07;;;;;;;16.88;12.75;;;9.30;99.90;;;;;;5019053;28;20567;-92
2021/11/20 04:52:34;;;;;;;21.65;12.57;;;9.40;99.90;;;;;;5036463;28;20221;-93
2021/11/20 04:55:00;;;;;;;22.95;13.73;;;9.30;99.90;;;;;;5021345;28;20179;-92
2021/11/20 04:57:26;;;;;;;19.95;13.02;;;9.30;99.90;;;;;;5022226;28;20202;-94
2021/11/20 04:59:51;;;;;;;22.52;14.10;;;9.30;99.90;;;;;;5018833;28;20178;-91
2021/11/20 05:02:17;;;;;;;22.33;14.40;;;9.30;99.90;;;;;;5018574;28;20203;-92
2021/11/20 05:04:43;;;;;;;21.77;13.73;;;9.30;99.90;;;;;;5037991;28;20171;-90
2021/11/20 05:07:09;;;;;;;20.73;14.37;;;9.30;99.90;;;;;;5019171;28;20206;-92
2021/11/20 05:09:35;;;;;;;19.30;13.77;;;9.20;99.90;;;;;;5028235;28;20193;-92
2021/11/20 05:12:01;;;;;;;19.45;12.75;;;9.20;99.90;;;;;;5030853;28;20206;-93
2021/11/20 05:14:27;;;;;;;18.13;11.88;;;9.20;99.90;;;;;;5024289;28;20245;-92
2021/11/20 05:16:53;;;;;;;15.93;12.50;;;9.20;99.90;;;;;;5037890;28;20194;-93
2021/11/20 05:19:19;;;;;;;17.97;12.63;;;9.10;99.90;;;;;;5037967;28;20178;-92
2021/11/20 05:21:44;;;;;;;15.73;11.23;;;9.10;99.90;;;;;;5055294;28;20401;-94
2021/11/20 05:24:10;;;;;;;14.67;11.53;;;9.10;99.90;;;;;;5039603;28;20178;-91
2021/11/20 05:26:36;;;;;;;16.40;12.00;;;9.10;99.90;;;;;;5040643;28;20200;-92
2021/11/20 05:29:21;;;;;;;15.80;10.90;;;9.00;99.90;;;;;;5038387;28;20535;-91
2021/11/20 05:31:47;;;;;;;14.40;11.00;;;9.00;99.90;;;;;;5037966;28;20208;-93
2021/11/20 05:34:12;;;;;;;17.52;11.70;;;9.00;99.90;;;;;;5039061;28;20269;-92
2021/11/20 05:36:38;;;;;;;14.33;10.80;;;9.00;99.90;;;;;;5045658;28;20221;-92
2021/11/20 05:39:05;;;;;;;15.30;10.95;;;8.90;99.90;;;;;;5044282;28;20185;-93
2021/11/20 05:41:31;;;;;;;14.27;10.55;;;8.90;99.90;;;;;;5037835;28;20227;-93
2021/11/20 05:43:58;;;;;;;15.83;12.00;;;8.90;99.90;;;;;;5037845;28;20576;-93
2021/11/20 05:46:26;;;;;;;18.88;11.80;;;8.90;99.90;;;;;;5037836;28;20202;-92
2021/11/20 05:48:52;;;;;;;21.63;14.02;;;8.80;99.90;;;;;;5056054;28;20209;-92
2021/11/20 05:51:19;;;;;;;23.60;15.85;;;8.80;99.90;;;;;;5060551;28;20667;-92
2021/11/20 05:53:45;;;;;;;21.60;14.38;;;8.80;99.90;;;;;;5052142;28;20203;-92
2021/11/20 05:56:11;;;;;;;20.45;14.25;;;8.80;99.90;;;;;;5037453;28;20216;-92
2021/11/20 05:58:37;;;;;;;18.30;12.03;;;8.80;99.90;;;;;;5057243;28;20170;-93
2021/11/20 06:01:07;;;;;;;15.75;12.15;;;8.70;99.90;;;;;;5057412;28;20385;-92
2021/11/20 06:03:33;;;;;;;19.83;14.30;;;8.70;99.90;;;;;;5039835;28;20188;-92
2021/11/20 06:05:59;;;;;;;21.30;17.40;;;8.70;99.90;;;;;;5037700;28;20182;-93
2021/11/20 06:08:25;;;;;;;18.13;12.50;;;8.70;99.90;;;;;;5038196;28;20532;-91
2021/11/20 06:10:54;;;;;;;15.73;11.05;;;8.70;99.90;;;;;;5041041;28;20992;-91
2021/11/20 06:13:20;;;;;;;15.60;10.80;;;8.70;99.90;;;;;;5037142;28;20828;-91
2021/11/20 06:15:46;;;;;;;14.57;10.30;;;8.60;99.90;;;;;;5037601;28;20182;-91
2021/11/20 06:18:12;;;;;;;15.77;9.40;;;8.60;99.90;;;;;;5055389;28;20705;-94
2021/11/20 06:20:41;;;;;;;10.57;8.60;;;8.70;99.90;;;;;;5038419;28;20178;-90
2021/11/20 06:23:07;;;;;;;12.73;9.90;;;8.60;99.90;;;;;;5047231;28;20209;-90
2021/11/20 06:25:32;;;;;;;13.27;10.07;;;8.70;99.90;;;;;;5046482;28;20182;-91
2021/11/20 06:27:58;;;;;;;12.93;11.13;;;8.70;99.90;;;;;;5037044;28;20222;-94
2021/11/20 06:30:26;;;;;;;14.20;11.00;;;8.70;99.90;;;;;;5037016;28;20220;-93
2021/11/20 06:32:53;;;;;;;14.30;10.32;;;8.70;99.90;;;;;;5036743;28;20421;-93
2021/11/20 06:35:24;;;;;;;14.27;10.30;;;8.70;99.90;;;;;;5037252;28;20196;-91
2021/11/20 06:37:51;;;;;;;14.65;12.00;;;8.70;99.90;;;;;;5039789;28;20206;-92
2021/11/20 06:40:21;;;;;;;13.90;10.80;;;8.70;99.90;;;;;;5039364;28;20177;-92
2021/11/20 06:42:47;;;;;;;16.73;11.30;;;8.80;99.90;;;;;;5055041;28;20228;-91
2021/11/20 06:45:19;;;;;;;16.50;10.93;;;8.80;99.90;;;;;;5055954;28;20535;-90
2021/11/20 06:47:45;;;;;;;14.77;11.05;;;8.90;99.90;;;;;;5037190;28;20697;-91
2021/11/20 06:50:11;;;;;;;12.52;10.20;;;8.90;99.90;;;;;;5037140;28;20181;-92
2021/11/20 06:52:37;;;;;;;12.13;8.90;;;8.90;99.90;;;;;;5037009;28;20299;-92
2021/11/20 06:55:04;;;;;;;10.90;8.05;;;9.00;99.90;;;;;;5056115;28;20192;-89
2021/11/20 07:00:26;;;;;;;11.50;7.55;;;9.30;99.90;;;;;;5057528;28;20164;-90
2021/11/20 07:03:02;;;;;;;12.25;8.52;;;9.50;99.90;;;;;;5058609;28;20206;-92
2021/11/20 07:05:34;;;;;;;9.40;7.70;;;9.80;99.90;;;;;;5040303;28;20173;-93
2021/11/20 07:08:01;;;;;;;12.88;9.40;;;10.00;99.90;;;;;;5046502;28;20225;-93
2021/11/20 07:10:28;;;;;;;10.95;7.70;;;10.10;99.90;;;;;;5059635;28;20181;-91
2021/11/20 07:12:55;;;;;;;8.93;7.43;;;10.10;99.90;;;;;;5037706;28;20209;-91
2021/11/20 07:15:22;;;;;;;11.82;7.95;;;10.20;99.90;;;;;;5037538;28;20272;-91
2021/11/20 07:17:48;;;;;;;9.10;7.95;;;10.20;99.90;;;;;;5055609;28;20280;-90
2021/11/20 07:20:15;;;;;;;11.23;8.03;;;10.30;99.90;;;;;;5058214;28;20170;-92
2021/11/20 07:22:41;;;;;;;9.50;7.95;;;10.40;99.90;;;;;;5039833;28;20198;-90
2021/11/20 07:25:07;;;;;;;8.65;6.72;;;10.60;99.90;;;;;;5046981;28;20204;-91
2021/11/20 07:27:33;;;;;;;9.32;7.60;;;11.10;99.90;;;;;;5039829;28;20244;-91
2021/11/20 07:29:59;;;;;;;8.90;7.05;;;11.50;99.90;;;;;;5041584;28;20642;-91
2021/11/20 07:32:27;;;;;;;8.43;6.60;;;12.00;99.90;;;;;;5043572;28;20285;-92
2021/11/20 07:34:54;;;;;;;7.97;7.05;;;12.40;99.90;;;;;;5047307;28;20177;-91
2021/11/20 07:37:21;;;;;;;8.00;6.47;;;12.90;99.90;;;;;;5056795;28;20202;-92
2021/11/20 07:39:46;;;;;;;9.70;7.32;;;13.40;99.90;;;;;;5055711;28;20196;-93
2021/11/20 07:42:12;;;;;;;8.00;7.07;;;13.90;99.90;;;;;;5031839;28;20297;-92
2021/11/20 07:44:38;;;;;;;8.50;6.50;;;14.30;99.90;;;;;;5025768;28;20249;-94
2021/11/20 07:47:04;;;;;;;9.97;6.53;;;14.80;99.90;;;;;;5031138;28;20210;-96
2021/11/20 07:49:32;;;;;;;6.63;6.00;;;15.20;99.90;;;;;;5043043;28;20594;-95
2021/11/20 07:51:58;;;;;;;8.70;6.83;;;15.80;99.90;;;;;;5024305;28;20194;-96
2021/11/20 07:54:24;;;;;;;12.23;6.70;;;16.30;99.90;;;;;;5050260;28;21038;-96
2021/11/20 07:56:50;;;;;;;8.00;7.20;;;16.70;99.90;;;;;;5032891;28;20466;-95
2021/11/20 07:59:19;;;;;;;6.93;6.10;;;17.20;99.90;;;;;;5037108;28;20419;-95
2021/11/20 08:01:45;;;;;;;7.57;6.57;;;17.80;99.90;;;;;;5029565;28;20525;-93
2021/11/20 08:04:14;;;;;;;7.43;6.63;;;18.10;99.90;;;;;;5045226;28;20448;-93
2021/11/20 08:06:41;;;;;;;7.90;7.10;;;18.40;99.90;;;;;;5025235;28;20461;-93
2021/11/20 08:09:08;;;;;;;6.87;6.20;;;18.80;99.90;;;;;;5031534;28;20499;-93
2021/11/20 08:11:38;;;;;;;7.13;6.03;;;19.20;99.90;;;;;;5028724;28;20452;-94
2021/11/20 08:14:04;;;;;;;6.50;5.43;;;19.60;99.90;;;;;;5026288;28;20522;-94
2021/11/20 08:16:31;;;;;;;6.70;6.00;;;20.10;99.90;;;;;;5038601;28;20812;-93
2021/11/20 08:18:58;;;;;;;6.43;5.73;;;20.40;99.90;;;;;;5025895;28;20463;-94
2021/11/20 08:21:25;;;;;;;6.63;5.70;;;20.80;99.90;;;;;;5034641;28;20455;-94
2021/11/20 08:23:51;;;;;;;7.27;5.40;;;21.00;99.90;;;;;;5026363;28;20440;-93
2021/11/20 08:26:18;;;;;;;7.77;5.97;;;21.30;99.90;;;;;;5031889;28;20453;-92
2021/11/20 08:28:44;;;;;;;6.77;6.07;;;21.50;99.90;;;;;;5023957;28;20478;-92
2021/11/20 08:31:11;;;;;;;8.37;6.10;;;21.50;99.10;;;;;;5030259;28;21793;-93
2021/11/20 08:33:38;;;;;;;7.47;6.57;;;21.40;99.30;;;;;;5028830;28;20401;-92
2021/11/20 08:36:11;;;;;;;7.37;6.57;;;21.20;98.80;;;;;;5022024;28;20423;-91
2021/11/20 08:38:37;;;;;;;8.73;6.60;;;20.90;98.90;;;;;;5022276;28;20434;-91
2021/11/20 08:41:03;;;;;;;7.93;6.23;;;20.60;99.10;;;;;;5022418;28;20406;-93
2021/11/20 08:43:30;;;;;;;8.87;7.37;;;20.50;99.10;;;;;;5022804;28;20438;-92
2021/11/20 08:45:58;;;;;;;7.03;6.10;;;20.50;98.90;;;;;;5019701;28;20403;-92
2021/11/20 08:48:24;;;;;;;8.53;6.43;;;20.40;98.80;;;;;;5016419;28;20565;-92
2021/11/20 08:51:00;;;;;;;7.00;6.07;;;20.30;98.40;;;;;;5024775;28;20873;-90
2021/11/20 08:53:26;;;;;;;7.77;7.00;;;20.20;98.50;;;;;;5035405;28;20283;-91
2021/11/20 08:55:52;;;;;;;9.00;7.40;;;20.00;98.60;;;;;;5044216;28;20457;-92
2021/11/20 08:58:19;;;;;;;10.77;8.67;;;19.80;99.10;;;;;;5034949;28;20524;-92
2021/11/20 09:00:55;;;;;;;8.87;7.23;;;19.60;99.20;;;;;;5034829;28;20410;-91
2021/11/20 09:03:36;;;;;;;7.93;6.50;;;19.40;99.50;;;;;;5036553;28;20527;-89
2021/11/20 09:06:08;;;;;;;7.33;6.30;;;19.60;99.60;;;;;;5025251;28;20506;-93
2021/11/20 09:08:38;;;;;;;7.90;7.10;;;19.90;99.10;;;;;;5017151;28;20473;-92
2021/11/20 09:11:22;;;;;;;9.23;6.10;;;20.10;98.30;;;;;;5021624;28;20970;-91
2021/11/20 09:14:11;;;;;;;6.90;6.20;;;20.20;98.30;;;;;;5023847;28;20534;-90
2021/11/20 09:16:38;;;;;;;6.70;6.00;;;20.30;98.00;;;;;;5018914;28;20507;-92
2021/11/20 09:19:06;;;;;;;8.03;6.30;;;20.20;97.60;;;;;;5014897;28;20449;-94
2021/11/20 09:21:32;;;;;;;6.93;6.23;;;20.10;98.00;;;;;;5014775;28;20945;-92
2021/11/20 09:23:59;;;;;;;7.23;6.20;;;20.00;97.90;;;;;;5015663;28;20437;-92
2021/11/20 09:26:26;;;;;;;8.70;6.53;;;19.90;97.90;;;;;;5023019;28;20727;-91
2021/11/20 09:28:54;;;;;;;6.50;5.90;;;20.10;98.20;;;;;;5017020;28;20584;-93
2021/11/20 09:31:20;;;;;;;7.83;6.23;;;20.30;98.10;;;;;;5034500;28;20430;-93
2021/11/20 09:33:46;;;;;;;7.40;6.20;;;20.50;97.90;;;;;;5034241;28;20441;-92
2021/11/20 09:36:13;;;;;;;6.80;5.67;;;20.50;97.70;;;;;;5016857;28;20436;-92
2021/11/20 09:38:39;;;;;;;7.10;6.10;;;20.60;97.50;;;;;;5017632;28;20459;-91
2021/11/20 09:41:12;;;;;;;6.50;5.87;;;20.80;97.60;;;;;;5019875;28;20421;-92
2021/11/20 09:43:42;;;;;;;7.73;5.97;;;21.00;97.50;;;;;;5035428;28;20471;-92
2021/11/20 09:46:19;;;;;;;6.67;5.77;;;21.20;97.00;;;;;;5036879;28;21165;-91
2021/11/20 09:48:50;;;;;;;7.40;6.60;;;21.40;96.80;;;;;;5020623;28;20998;-91
2021/11/20 09:51:31;;;;;;;8.00;6.47;;;21.40;96.40;;;;;;5018232;28;20452;-93
2021/11/20 09:54:08;;;;;;;8.10;6.53;;;21.30;96.30;;;;;;5019136;28;20424;-90
2021/11/20 09:56:47;;;;;;;7.37;6.27;;;21.20;96.40;;;;;;5018237;28;20462;-92
2021/11/20 09:59:34;;;;;;;8.07;6.63;;;20.80;96.50;;;;;;5035688;28;20417;-92
2021/11/20 10:02:15;;;;;;;7.30;6.03;;;20.50;96.80;;;;;;5037023;28;20442;-90
2021/11/20 10:04:49;;;;;;;8.50;6.70;;;20.20;97.10;;;;;;5018401;28;20419;-91
2021/11/20 10:07:27;;;;;;;9.20;8.30;;;19.90;97.40;;;;;;5034465;28;20445;-93
2021/11/20 10:09:59;;;;;;;10.20;6.90;;;19.70;97.60;;;;;;5018569;28;20959;-90
2021/11/20 10:12:34;;;;;;;9.80;7.23;;;19.50;97.80;;;;;;5036099;28;20441;-91
2021/11/20 10:15:25;;;;;;;10.17;7.40;;;19.30;97.90;;;;;;5037538;28;20957;-92
2021/11/20 10:18:00;;;;;;;8.73;6.90;;;19.20;98.30;;;;;;5011796;28;20883;-91
2021/11/20 10:20:34;;;;;;;7.87;6.53;;;19.10;98.50;;;;;;5033666;28;20427;-90
2021/11/20 10:23:09;;;;;;;9.80;7.00;;;19.00;98.70;;;;;;5034882;28;20784;-93
2021/11/20 10:26:13;;;;;;;7.17;6.40;;;19.00;98.50;;;;;;5036433;28;20872;-91
2021/11/20 10:29:16;;;;;;;13.07;6.77;;;19.00;98.10;;;;;;5047584;28;20830;-90
2021/11/20 10:31:50;;;;;;;7.10;6.33;;;19.00;98.60;;;;;;5047143;28;20439;-92
2021/11/20 10:34:44;;;;;;;9.80;7.90;;;18.90;98.50;;;;;;5038955;28;20393;-92
2021/11/20 10:37:21;;;;;;;8.33;6.50;;;18.80;98.80;;;;;;5040998;28;20445;-90
2021/11/20 10:39:51;;;;;;;9.70;6.70;;;18.70;99.10;;;;;;5039675;28;20431;-88
2021/11/20 10:42:39;;;;;;;7.30;6.60;;;18.70;99.30;;;;;;5038802;28;20453;-88
2021/11/20 10:45:31;;;;;;;8.80;6.83;;;18.60;98.80;;;;;;5035578;28;20424;-89
2021/11/20 10:48:08;;;;;;;7.50;6.70;;;18.60;98.90;;;;;;5017690;28;20508;-89
2021/11/20 10:50:47;;;;;;;7.50;6.53;;;18.50;99.20;;;;;;5015185;28;20440;-88
2021/11/20 10:53:50;;;;;;;8.13;7.03;;;18.30;99.40;;;;;;5013070;28;20455;-90
2021/11/20 10:56:37;;;;;;;8.10;6.90;;;18.20;99.50;;;;;;5013480;28;20432;-90
2021/11/20 10:59:31;;;;;;;7.90;7.10;;;18.10;99.70;;;;;;5014373;28;20428;-91
2021/11/20 11:02:19;;;;;;;7.03;6.33;;;18.00;99.90;;;;;;5012828;28;20456;-91
2021/11/20 11:04:58;;;;;;;7.70;6.27;;;17.90;99.60;;;;;;5013505;28;20427;-90
2021/11/20 11:07:44;;;;;;;8.13;6.47;;;17.70;99.90;;;;;;5011975;28;20452;-90
2021/11/20 11:10:15;;;;;;;9.37;6.93;;;17.60;99.80;;;;;;5012283;28;20933;-90
2021/11/20 11:12:51;;;;;;;8.03;6.30;;;17.40;99.90;;;;;;5011559;28;20445;-89
2021/11/20 11:15:36;;;;;;;7.40;6.70;;;17.40;99.90;;;;;;5012100;28;20390;-91
2021/11/20 11:18:18;;;;;;;9.67;7.77;;;17.30;99.90;;;;;;5025263;28;20471;-91
2021/11/20 11:20:55;;;;;;;9.07;7.17;;;17.30;99.90;;;;;;5021750;28;20511;-89
2021/11/20 11:23:41;;;;;;;7.73;6.60;;;17.30;99.90;;;;;;5037614;28;20420;-91
2021/11/20 11:26:10;;;;;;;7.93;7.03;;;17.30;99.90;;;;;;5044939;28;20415;-90
2021/11/20 11:28:55;;;;;;;7.60;6.37;;;17.40;99.90;;;;;;5036583;28;20485;-91
2021/11/20 11:31:26;;;;;;;11.03;8.53;;;17.40;99.90;;;;;;5019846;28;20439;-90
2021/11/20 11:34:00;;;;;;;9.90;6.83;;;17.50;99.90;;;;;;5041222;28;20405;-89
2021/11/20 11:36:39;;;;;;;9.67;7.43;;;17.60;99.90;;;;;;5022103;28;20427;-91
2021/11/20 11:39:33;;;;;;;9.80;7.13;;;17.60;99.90;;;;;;5039755;28;20418;-90
2021/11/20 11:42:11;;;;;;;8.57;7.47;;;17.70;99.90;;;;;;5020764;28;20465;-92
2021/11/20 11:44:36;;;;;;;9.07;7.63;;;17.80;99.90;;;;;;5038376;28;20985;-90
2021/11/20 11:47:25;;;;;;;8.43;7.60;;;17.80;99.90;;;;;;5019937;28;20530;-90
2021/11/20 11:50:14;;;;;;;9.63;7.20;;;17.80;99.90;;;;;;5038516;28;20180;-91
2021/11/20 11:52:55;;;;;;;8.40;7.03;;;17.80;99.90;;;;;;5000615;28;20968;-91
2021/11/20 11:55:26;;;;;;;9.40;7.10;;;17.80;99.90;;;;;;5020102;28;20990;-90
2021/11/20 11:58:06;;;;;;;7.07;6.37;;;17.80;99.90;;;;;;5020674;28;20434;-91
2021/11/20 12:00:53;;;;;;;8.20;7.30;;;17.80;99.90;;;;;;5020549;28;20440;-89
2021/11/20 12:03:28;;;;;;;9.93;7.27;;;17.90;99.90;;;;;;5038292;28;20447;-89
2021/11/20 12:06:03;;;;;;;8.00;7.00;;;17.90;99.90;;;;;;5038436;28;20434;-88
2021/11/20 12:08:52;;;;;;;7.37;6.60;;;17.80;99.90;;;;;;5046093;28;20474;-91
2021/11/20 12:11:39;;;;;;;8.00;6.90;;;17.80;99.90;;;;;;5020865;28;20458;-90
2021/11/20 12:14:14;;;;;;;8.40;7.30;;;17.80;99.90;;;;;;5037844;28;20450;-90
2021/11/20 12:16:58;;;;;;;8.00;7.17;;;17.70;99.90;;;;;;5021096;28;20435;-90
2021/11/20 12:19:43;;;;;;;7.67;6.87;;;17.70;99.90;;;;;;5021462;28;20443;-90
2021/11/20 12:22:34;;;;;;;10.47;6.70;;;17.70;99.90;;;;;;5047133;28;20793;-91
2021/11/20 12:25:22;;;;;;;7.83;7.00;;;17.60;99.90;;;;;;5039792;28;20455;-89
2021/11/20 12:27:48;;;;;;;8.90;7.03;;;17.70;99.90;;;;;;5057413;28;20481;-90
2021/11/20 12:30:30;;;;;;;9.03;7.10;;;17.70;99.90;;;;;;5057671;28;20410;-92
2021/11/20 12:33:13;;;;;;;9.43;7.53;;;17.70;99.90;;;;;;5057234;28;20212;-89
2021/11/20 12:36:04;;;;;;;8.70;6.60;;;17.70;99.90;;;;;;5059793;28;20403;-90
2021/11/20 12:38:36;;;;;;;8.20;6.80;;;17.80;99.90;;;;;;5040291;28;20446;-92
2021/11/20 12:41:08;;;;;;;6.83;5.97;;;17.90;99.90;;;;;;5033763;28;20399;-90
2021/11/20 12:44:07;;;;;;;8.20;6.80;;;17.90;99.90;;;;;;5039024;28;20430;-92
2021/11/20 12:46:56;;;;;;;7.30;6.53;;;17.90;99.90;;;;;;5057143;28;20549;-92
2021/11/20 12:49:58;;;;;;;7.90;7.10;;;17.90;99.90;;;;;;5041365;28;20471;-89
2021/11/20 12:52:35;;;;;;;7.53;6.70;;;17.90;99.90;;;;;;5049279;28;20454;-90
2021/11/20 12:55:19;;;;;;;6.63;5.93;;;17.90;99.90;;;;;;5047229;28;20418;-89
2021/11/20 12:57:54;;;;;;;10.97;7.00;;;17.80;99.90;;;;;;5030858;28;20494;-89
2021/11/20 13:00:26;;;;;;;10.87;8.00;;;17.80;99.90;;;;;;5027054;28;20411;-93
2021/11/20 13:02:58;;;;;;;10.90;8.00;;;17.70;99.90;;;;;;5026711;28;20790;-91
2021/11/20 13:05:39;;;;;;;9.00;7.27;;;17.70;99.90;;;;;;5018858;28;20416;-90
2021/11/20 13:08:22;;;;;;;10.87;7.40;;;17.70;99.90;;;;;;5031412;28;20462;-91